BIGE weather

Geysir Airport
Geysir, Southern Region, Iceland

Public forecast

Using degrees Celsius for public forecast. Weather courtesy of forecast.io.

Closest aviation weather report (METAR) to Geysir Airport

Closest report is Reykjavik Airport, 44.9 nm (83.2 km) WSW. Retrieved 2019/10/19 08:00 UTC (44 minutes ago):

BIRK 190800Z 12002KT 9999 SCT032 BKN040 03/01 Q1020

Closest aviation forecast (TAF) to Geysir Airport

Closest forecast is Reykjavik Airport, 44.9 nm (83.2 km) WSW. Retrieved 2019/10/19 09:27 UTC (0 seconds ago):

TAF BIRK 190720Z 1909/2009 12005KT 9999 SCT020 BKN032 TX06/1915Z TN02/2003Z BECMG 1909/1911 25010KT BECMG 2007/2009 18010KT